D/T METAR WX W/DIR W/SPE G/SPE TEMP DEWP
5/06/20 06:50 EGKB 050550Z 29009G19KT 250V330 9999 SCT024 10/05 Q0995 WNW (290°) 10.4mph 21.9mph 10°C 5°C
5/06/20 06:20 EGKB 050520Z 29010KT 260V330 9999 BKN032 10/06 Q0996 WNW (290°) 11.5mph 10°C 6°C
4/06/20 22:20 EGKB 042120Z 27007KT 240V300 9999 FEW045 10/07 Q1001 W (270°) 8.1mph 10°C 7°C
4/06/20 21:50 EGKB 042050Z 26007KT 230V300 9999 FEW045 11/07 Q1001 W (260°) 8.1mph 11°C 7°C
4/06/20 21:20 EGKB 042020Z 27006KT 230V310 9999 FEW045 11/06 Q1001 W (270°) 6.9mph 11°C 6°C
4/06/20 20:50 EGKB 041950Z 24005KT 210V280 9999 FEW030 11/06 Q1001 WSW (240°) 5.8mph 11°C 6°C
4/06/20 20:20 EGKB 041920Z 24004KT 210V280 9999 SCT040 11/06 Q1001 WSW (240°) 4.6mph 11°C 6°C
4/06/20 19:50 EGKB 041850Z 25004KT 210V290 9999 SCT040 11/06 Q1001 WSW (250°) 4.6mph 11°C 6°C
4/06/20 19:20 EGKB 041820Z 23006KT 200V280 9999 FEW035 11/06 Q1001 SW (230°) 6.9mph 11°C 6°C
4/06/20 18:50 EGKB 041750Z 27005KT 240V330 9999 SCT040 11/06 Q1001 W (270°) 5.8mph 11°C 6°C
4/06/20 17:50 EGKB 041650Z 28007KT 240V320 9999 SCT045 11/05 Q1002 W (280°) 8.1mph 11°C 5°C
4/06/20 17:20 EGKB 041620Z 30009KT 260V330 9999 VCSH SCT045 13/04 Q1001 VCSH WNW (300°) 10.4mph 13°C 4°C
4/06/20 16:50 EGKB 041550Z 30009KT 260V340 9999 BKN040 13/04 Q1002 WNW (300°) 10.4mph 13°C 4°C
4/06/20 16:20 EGKB 041520Z 29008KT 210V350 9999 FEW045 14/03 Q1002 WNW (290°) 9.2mph 14°C 3°C
4/06/20 15:20 EGKB 041420Z 31008KT 280V340 9999 SCT045 13/03 Q1002 NW (310°) 9.2mph 13°C 3°C
4/06/20 14:50 EGKB 041350Z 31010KT 280V340 9999 SCT045 14/03 Q1002 NW (310°) 11.5mph 14°C 3°C
4/06/20 14:20 EGKB 041320Z 34009KT 290V020 9999 SCT045 15/03 Q1002 NNW (340°) 10.4mph 15°C 3°C
4/06/20 13:50 EGKB 041250Z 34010KT 260V020 9999 SCT045 14/03 Q1002 NNW (340°) 11.5mph 14°C 3°C
4/06/20 13:20 EGKB 041220Z 34010KT 300V010 9999 SCT045 14/03 Q1003 NNW (340°) 11.5mph 14°C 3°C
4/06/20 12:50 EGKB 041150Z 34013KT 9999 SCT040 14/03 Q1003 NNW (340°) 15.0mph 14°C 3°C
4/06/20 12:20 EGKB 041120Z 34011KT 310V010 9999 SCT040 13/03 Q1003 NNW (340°) 12.7mph 13°C 3°C
4/06/20 11:50 EGKB 041050Z 32010KT 290V350 9999 SCT035 13/04 Q1003 NW (320°) 11.5mph 13°C 4°C
4/06/20 11:20 EGKB 041020Z 34009KT 300V010 9999 SCT035 12/05 Q1003 NNW (340°) 10.4mph 12°C 5°C
4/06/20 10:20 EGKB 040920Z 34008KT 320V020 9999 BKN020 11/07 Q1003 NNW (340°) 9.2mph 11°C 7°C
4/06/20 09:50 EGKB 040850Z 34011KT 9999 SCT020 SCT030 11/07 Q1004 NNW (340°) 12.7mph 11°C 7°C
4/06/20 08:50 EGKB 040750Z 35007KT 9999 BKN015 10/08 Q1004 N (350°) 8.1mph 10°C 8°C
4/06/20 08:20 EGKB 040720Z 36009KT 330V030 9999 BKN010 09/08 Q1004 N (360°) 10.4mph 9°C 8°C
4/06/20 07:50 EGKB 040650Z 35008KT 9999 BKN010 09/08 Q1004 N (350°) 9.2mph 9°C 8°C
4/06/20 07:20 EGKB 040620Z 34010KT 9999 BKN010 09/08 Q1004 NNW (340°) 11.5mph 9°C 8°C
4/06/20 06:50 EGKB 040550Z 34010KT 9999 BKN010 09/07 Q1004 NNW (340°) 11.5mph 9°C 7°C
4/06/20 06:20 EGKB 040520Z 34009KT 9999 BKN010 09/08 Q1004 NNW (340°) 10.4mph 9°C 8°C
3/06/20 22:20 EGKB 032120Z 01010KT 9999 FEW025 12/08 Q1007 N (10°) 11.5mph 12°C 8°C
3/06/20 21:50 EGKB 032050Z 01013KT 9999 FEW045 12/08 Q1007 N (10°) 15.0mph 12°C 8°C
3/06/20 21:20 EGKB 032020Z 01013KT 9999 -RA SCT043 13/08 Q1007 -RA N (10°) 15.0mph 13°C 8°C
3/06/20 20:50 EGKB 031950Z 36011KT 9999 SCT035 13/08 Q1007 N (360°) 12.7mph 13°C 8°C
3/06/20 20:20 EGKB 031920Z 01011KT 9999 SCT032 14/09 Q1007 N (10°) 12.7mph 14°C 9°C
3/06/20 19:50 EGKB 031850Z 36012KT 9999 FEW032 14/09 Q1006 N (360°) 13.8mph 14°C 9°C
3/06/20 19:20 EGKB 031820Z 36012KT 340V040 9999 SCT035 15/09 Q1006 N (360°) 13.8mph 15°C 9°C
3/06/20 18:50 EGKB 031750Z 36010KT 9999 FEW035 15/10 Q1006 N (360°) 11.5mph 15°C 10°C
3/06/20 18:20 EGKB 031720Z 01009KT 9999 FEW030 16/10 Q1006 N (10°) 10.4mph 16°C 10°C
3/06/20 17:50 EGKB 031650Z 36009KT 9999 SCT038 16/11 Q1006 N (360°) 10.4mph 16°C 11°C
3/06/20 17:20 EGKB 031620Z 34007KT 9999 FEW047 16/11 Q1007 NNW (340°) 8.1mph 16°C 11°C
3/06/20 16:50 EGKB 031550Z 36008KT 330V030 9999 -RA NSC 16/10 Q1007 -RA N (360°) 9.2mph 16°C 10°C
3/06/20 16:20 EGKB 031520Z 35006KT 9999 -RA SCT040 16/10 Q1007 -RA N (350°) 6.9mph 16°C 10°C
3/06/20 15:50 EGKB 031450Z 36006KT 9999 -RA NSC 16/09 Q1007 -RA N (360°) 6.9mph 16°C 9°C
3/06/20 15:20 EGKB 031420Z 01007KT 340V050 9999 -RA NSC 17/10 Q1008 -RA N (10°) 8.1mph 17°C 10°C
3/06/20 14:50 EGKB 031350Z 01007KT 340V040 CAVOK 17/08 Q1008 N (10°) 8.1mph 17°C 8°C
3/06/20 13:50 EGKB 031250Z 01009KT 340V040 CAVOK 18/07 Q1008 N (10°) 10.4mph 18°C 7°C
3/06/20 13:20 EGKB 031220Z 01008KT 330V040 CAVOK 19/08 Q1008 N (10°) 9.2mph 19°C 8°C
3/06/20 12:50 EGKB 031150Z 01009KT 340V060 CAVOK 18/07 Q1008 N (10°) 10.4mph 18°C 7°C
3/06/20 12:20 EGKB 031120Z 02010KT 350V060 9999 FEW030 18/08 Q1008 NNE (20°) 11.5mph 18°C 8°C
3/06/20 11:50 EGKB 031050Z 03008KT CAVOK 17/09 Q1008 NNE (30°) 9.2mph 17°C 9°C
3/06/20 11:20 EGKB 031020Z 03007KT 360V060 CAVOK 17/08 Q1008 NNE (30°) 8.1mph 17°C 8°C
3/06/20 10:50 EGKB 030950Z 04008KT CAVOK 17/10 Q1008 NE (40°) 9.2mph 17°C 10°C
3/06/20 10:20 EGKB 030920Z 04006KT CAVOK 16/12 Q1009 NE (40°) 6.9mph 16°C 12°C
3/06/20 09:50 EGKB 030850Z 03005KT CAVOK 15/11 Q1009 NNE (30°) 5.8mph 15°C 11°C
3/06/20 09:20 EGKB 030820Z 04005KT 020V080 CAVOK 16/10 Q1009 NE (40°) 5.8mph 16°C 10°C
3/06/20 08:50 EGKB 030750Z VRB03KT CAVOK 16/09 Q1009 N (0°) 3.5mph 16°C 9°C
3/06/20 08:20 EGKB 030720Z 05004KT CAVOK 15/11 Q1009 NE (50°) 4.6mph 15°C 11°C
3/06/20 07:50 EGKB 030650Z VRB01KT CAVOK 16/10 Q1009 N (0°) 1.2mph 16°C 10°C
3/06/20 07:20 EGKB 030620Z 14003KT CAVOK 15/10 Q1009 SE (140°) 3.5mph 15°C 10°C
3/06/20 06:50 EGKB 030550Z VRB02KT CAVOK 14/10 Q1009 N (0°) 2.3mph 14°C 10°C
3/06/20 06:20 EGKB 030520Z VRB02KT CAVOK 13/09 Q1009 N (0°) 2.3mph 13°C 9°C
2/06/20 21:50 EGKB 022050Z VRB03KT CAVOK 16/06 Q1015 N (0°) 3.5mph 16°C 6°C
2/06/20 21:20 EGKB 022020Z VRB01KT CAVOK 18/06 Q1015 N (0°) 1.2mph 18°C 6°C
2/06/20 20:50 EGKB 021950Z 01005KT CAVOK 18/06 Q1015 N (10°) 5.8mph 18°C 6°C
2/06/20 20:20 EGKB 021920Z 01006KT CAVOK 20/06 Q1015 N (10°) 6.9mph 20°C 6°C
2/06/20 19:50 EGKB 021850Z 33004KT 300V010 CAVOK 21/05 Q1015 NNW (330°) 4.6mph 21°C 5°C
2/06/20 19:20 EGKB 021820Z 32006KT 280V010 CAVOK 22/03 Q1015 NW (320°) 6.9mph 22°C 3°C
2/06/20 18:50 EGKB 021750Z 32007KT 280V350 CAVOK 22/04 Q1015 NW (320°) 8.1mph 22°C 4°C
2/06/20 18:20 EGKB 021720Z 31007KT 250V010 CAVOK 23/05 Q1016 NW (310°) 8.1mph 23°C 5°C
2/06/20 17:50 EGKB 021650Z 29005KT 220V330 CAVOK 22/04 Q1016 WNW (290°) 5.8mph 22°C 4°C
2/06/20 16:50 EGKB 021550Z 32007KT 270V350 CAVOK 22/05 Q1016 NW (320°) 8.1mph 22°C 5°C
2/06/20 16:20 EGKB 021520Z 32007KT 270V350 CAVOK 23/05 Q1017 NW (320°) 8.1mph 23°C 5°C
2/06/20 15:50 EGKB 021450Z 32008KT 290V350 CAVOK 23/05 Q1017 NW (320°) 9.2mph 23°C 5°C
2/06/20 15:20 EGKB 021420Z VRB06KT CAVOK 23/05 Q1017 N (0°) 6.9mph 23°C 5°C
2/06/20 14:20 EGKB 021320Z VRB06KT CAVOK 23/05 Q1018 N (0°) 6.9mph 23°C 5°C
2/06/20 13:50 EGKB 021250Z 30008KT 240V350 CAVOK 22/05 Q1019 WNW (300°) 9.2mph 22°C 5°C
2/06/20 13:20 EGKB 021220Z 31006KT 270V080 CAVOK 22/05 Q1019 NW (310°) 6.9mph 22°C 5°C
2/06/20 12:20 EGKB 021120Z 31005KT 230V020 CAVOK 21/06 Q1019 NW (310°) 5.8mph 21°C 6°C
2/06/20 11:50 EGKB 021050Z 33008KT 290V020 CAVOK 21/06 Q1020 NNW (330°) 9.2mph 21°C 6°C
2/06/20 11:20 EGKB 021020Z 35008KT 260V050 CAVOK 20/06 Q1020 N (350°) 9.2mph 20°C 6°C
2/06/20 10:50 EGKB 020950Z 33007KT 290V020 CAVOK 19/07 Q1020 NNW (330°) 8.1mph 19°C 7°C
2/06/20 10:20 EGKB 020920Z 36007KT 320V040 CAVOK 18/06 Q1020 N (360°) 8.1mph 18°C 6°C
2/06/20 09:50 EGKB 020850Z 36006KT 300V070 CAVOK 17/06 Q1021 N (360°) 6.9mph 17°C 6°C
2/06/20 09:20 EGKB 020820Z 35007KT 320V020 CAVOK 17/08 Q1021 N (350°) 8.1mph 17°C 8°C
2/06/20 08:20 EGKB 020720Z 34005KT 300V010 CAVOK 15/09 Q1021 NNW (340°) 5.8mph 15°C 9°C
2/06/20 07:50 EGKB 020650Z 35006KT CAVOK 14/09 Q1021 N (350°) 6.9mph 14°C 9°C
2/06/20 07:20 EGKB 020620Z 34006KT CAVOK 13/09 Q1021 NNW (340°) 6.9mph 13°C 9°C
2/06/20 06:20 EGKB 020520Z 35004KT CAVOK 11/09 Q1021 N (350°) 4.6mph 11°C 9°C
1/06/20 21:50 EGKB 012050Z 07006KT CAVOK 14/08 Q1023 ENE (70°) 6.9mph 14°C 8°C
1/06/20 21:20 EGKB 012020Z 08005KT 050V110 CAVOK 15/08 Q1022 E (80°) 5.8mph 15°C 8°C
1/06/20 20:50 EGKB 011950Z 07008KT CAVOK 16/09 Q1022 ENE (70°) 9.2mph 16°C 9°C
1/06/20 20:20 EGKB 011920Z 07009KT 040V100 CAVOK 17/09 Q1022 ENE (70°) 10.4mph 17°C 9°C
1/06/20 19:20 EGKB 011820Z 08007KT 040V110 CAVOK 19/07 Q1022 E (80°) 8.1mph 19°C 7°C
1/06/20 18:50 EGKB 011750Z 06010KT 030V100 CAVOK 20/07 Q1022 ENE (60°) 11.5mph 20°C 7°C